Terminal Aerodrome Forecast
Issued by NWS

Home | Current Version | Previous Version | Text Only | Print | Product List | Glossary On
Versions: 1 2 3 4 5 6 7 8 9 10 11 12 13 14 15 16 17 18 19 20 21 22 23
000
FTUS43 KLSX 192300
TAFCPS
TAF
KCPS 192330Z 2000/2024 27007KT P6SM SCT050 BKN100
      TEMPO 2000/2001 BKN020
     FM200900 30012G20KT P6SM BKN025
     FM201500 30018G28KT P6SM SCT040=

USA.gov is the U.S. government's official web portal to all federal, state and local government web resources and services.